createdAt,value
2022-08-05T00:01:36.184Z,100938.50
2022-08-05T00:04:16.517Z,100933.47
2022-08-05T00:06:43.538Z,100943.41
2022-08-05T00:09:13.073Z,100941.50
2022-08-05T00:11:49.115Z,100954.72
2022-08-05T00:14:26.507Z,100959.88
2022-08-05T00:16:55.812Z,100964.09
2022-08-05T00:19:33.646Z,100963.50
2022-08-05T00:22:11.626Z,100969.50
2022-08-05T00:24:42.348Z,100975.75
2022-08-05T00:27:14.110Z,100970.00
2022-08-05T00:29:46.318Z,100965.41
2022-08-05T00:32:15.428Z,100969.84
2022-08-05T00:35:05.436Z,100969.47
2022-08-05T00:37:51.253Z,100963.47
2022-08-05T00:40:26.692Z,100967.69
2022-08-05T00:42:59.205Z,100961.31
2022-08-05T00:45:39.075Z,100970.47
2022-08-05T00:48:18.371Z,100976.47
2022-08-05T00:50:54.595Z,100977.78
2022-08-05T00:54:00.920Z,100961.28
2022-08-05T00:56:11.486Z,100960.09
2022-08-05T00:58:42.596Z,100970.94
2022-08-05T01:01:42.033Z,100979.59
2022-08-05T01:04:14.050Z,101009.63
2022-08-05T01:06:43.688Z,101011.31
2022-08-05T01:09:20.277Z,101012.03
2022-08-05T01:11:53.594Z,101016.00
2022-08-05T01:14:35.576Z,101011.31
2022-08-05T01:17:45.786Z,101004.97
2022-08-05T01:20:38.102Z,100999.19
2022-08-05T01:23:15.413Z,101010.38
2022-08-05T01:26:03.802Z,101001.97
2022-08-05T01:28:49.204Z,101001.44
2022-08-05T01:31:42.711Z,101000.34
2022-08-05T01:34:26.811Z,101015.59
2022-08-05T01:37:08.089Z,101028.31
2022-08-05T01:39:46.321Z,101021.34
2022-08-05T01:42:20.658Z,101010.88
2022-08-05T01:44:53.888Z,101006.94
2022-08-05T01:47:22.529Z,101003.34
2022-08-05T01:50:01.494Z,100990.47
2022-08-05T01:52:32.729Z,100977.66
2022-08-05T01:55:06.989Z,100963.59
2022-08-05T01:58:09.565Z,100954.72
2022-08-05T02:00:35.604Z,100950.50
2022-08-05T02:03:31.785Z,100938.25
2022-08-05T02:06:23.952Z,100930.44
2022-08-05T02:08:58.382Z,100928.53
2022-08-05T02:11:32.788Z,100925.06
2022-08-05T02:14:12.822Z,100924.56
2022-08-05T02:16:46.993Z,100922.88
2022-08-05T02:19:28.614Z,100932.03
2022-08-05T02:22:26.462Z,100931.28
2022-08-05T02:25:13.434Z,100930.94
2022-08-05T02:27:58.431Z,100930.94
2022-08-05T02:30:34.515Z,100932.03
2022-08-05T02:33:07.608Z,100939.81
2022-08-05T02:35:51.001Z,100962.88
2022-08-05T02:38:35.290Z,100945.22
2022-08-05T02:41:14.666Z,100940.31
2022-08-05T02:44:06.561Z,100941.16
2022-08-05T02:46:53.437Z,100938.84
2022-08-05T02:49:36.671Z,100936.22
2022-08-05T02:52:29.978Z,100926.25
2022-08-05T02:55:05.361Z,100928.16
2022-08-05T02:58:11.823Z,100937.78
2022-08-05T03:00:22.916Z,100973.81
2022-08-05T03:02:53.741Z,101000.47
2022-08-05T03:05:21.931Z,101004.56
2022-08-05T03:08:11.132Z,100962.88
2022-08-05T03:11:50.040Z,100936.22
2022-08-05T03:13:51.749Z,100927.22
2022-08-05T03:16:26.699Z,100928.16
2022-08-05T03:18:54.972Z,100893.81
2022-08-05T03:21:28.706Z,100865.13
2022-08-05T03:23:58.703Z,100853.59
2022-08-05T03:26:32.041Z,100840.75
2022-08-05T03:29:00.045Z,100841.75
2022-08-05T03:31:56.083Z,100866.06
2022-08-05T03:34:15.593Z,100879.25
2022-08-05T03:36:42.665Z,100872.81
2022-08-05T03:39:19.938Z,100871.03
2022-08-05T03:41:57.386Z,100888.56
2022-08-05T03:44:25.791Z,100888.19
2022-08-05T03:46:58.413Z,100888.31
2022-08-05T03:49:30.842Z,100883.03
2022-08-05T03:52:49.266Z,100890.22
2022-08-05T03:56:06.065Z,100892.25
2022-08-05T03:58:19.282Z,100899.34
2022-08-05T04:00:51.688Z,100891.44
2022-08-05T04:03:28.542Z,100896.34
2022-08-05T04:05:59.201Z,100898.63
2022-08-05T04:08:36.221Z,100893.31
2022-08-05T04:11:08.486Z,100891.19
2022-08-05T04:13:50.281Z,100903.44
2022-08-05T04:16:24.847Z,100911.72
2022-08-05T04:18:54.477Z,100915.09
2022-08-05T04:22:10.119Z,100920.38
2022-08-05T04:24:19.265Z,100931.19
2022-08-05T04:26:52.248Z,100940.63
2022-08-05T04:29:19.773Z,100962.00
2022-08-05T04:31:49.747Z,100968.75
2022-08-05T04:34:31.729Z,100971.72
2022-08-05T04:37:00.875Z,100969.84
2022-08-05T04:39:31.217Z,100967.59
2022-08-05T04:41:59.584Z,100962.00
2022-08-05T04:44:29.979Z,100964.28
2022-08-05T04:47:08.849Z,100959.13
2022-08-05T04:50:03.071Z,100960.88
2022-08-05T04:52:27.459Z,100980.03
2022-08-05T04:54:57.894Z,100984.50
2022-08-05T04:57:29.121Z,100991.09
2022-08-05T05:00:06.967Z,101009.00
2022-08-05T05:02:41.149Z,101020.03
2022-08-05T05:05:16.814Z,101020.97
2022-08-05T05:08:01.957Z,101025.88
2022-08-05T05:10:33.295Z,101031.09
2022-08-05T05:13:04.122Z,101024.03
2022-08-05T05:15:59.166Z,101022.50
2022-08-05T05:18:28.769Z,101020.88
2022-08-05T05:21:03.545Z,101021.66
2022-08-05T05:24:02.432Z,101027.78
2022-08-05T05:26:18.309Z,101019.50
2022-08-05T05:28:45.435Z,101031.75
2022-08-05T05:31:14.877Z,101031.38
2022-08-05T05:33:59.783Z,101039.19
2022-08-05T05:36:37.438Z,101036.72
2022-08-05T05:39:10.959Z,101032.38
2022-08-05T05:41:40.810Z,101033.69
2022-08-05T05:44:15.691Z,101034.75
2022-08-05T05:47:04.490Z,101028.38
2022-08-05T05:49:40.144Z,101027.44
2022-08-05T05:52:07.505Z,101035.03
2022-08-05T05:54:50.404Z,101040.16
2022-08-05T05:57:21.599Z,101037.34
2022-08-05T05:59:49.252Z,101034.34
2022-08-05T06:02:32.437Z,101040.84
2022-08-05T06:05:16.758Z,101045.59
2022-08-05T06:07:57.925Z,101033.72
2022-08-05T06:10:37.346Z,101027.16
2022-08-05T06:13:16.148Z,101025.31
2022-08-05T06:16:29.865Z,101024.63
2022-08-05T06:18:31.262Z,101023.75
2022-08-05T06:20:59.407Z,101022.78
2022-08-05T06:23:26.450Z,101024.09
2022-08-05T06:26:13.565Z,101023.53
2022-08-05T06:28:48.588Z,101007.72
2022-08-05T06:31:22.380Z,101010.47
2022-08-05T06:34:07.386Z,101003.22
2022-08-05T06:36:57.637Z,101019.00
2022-08-05T06:39:27.317Z,101023.34
2022-08-05T06:41:58.633Z,101017.25
2022-08-05T06:44:29.205Z,101015.94
2022-08-05T06:46:56.957Z,101013.19
2022-08-05T06:50:00.094Z,101012.00
2022-08-05T06:52:36.758Z,101021.63
2022-08-05T06:55:02.524Z,101027.19
2022-08-05T06:57:58.180Z,101025.47
2022-08-05T07:00:24.766Z,101019.91
2022-08-05T07:02:53.930Z,101026.13
2022-08-05T07:05:23.447Z,101027.72
2022-08-05T07:08:06.344Z,101015.06
2022-08-05T07:10:38.579Z,100997.28
2022-08-05T07:13:34.119Z,100996.53
2022-08-05T07:17:58.406Z,100991.50
2022-08-05T07:19:44.321Z,101021.25
2022-08-05T07:22:08.151Z,101020.28
2022-08-05T07:24:35.175Z,101026.63
2022-08-05T07:27:13.126Z,101034.47
2022-08-05T07:30:24.749Z,101048.81
2022-08-05T07:32:28.524Z,101049.78
2022-08-05T07:34:57.905Z,101066.38
2022-08-05T07:37:29.094Z,101076.22
2022-08-05T07:40:32.580Z,101076.75
2022-08-05T07:42:58.840Z,101075.44
2022-08-05T07:45:44.107Z,101076.25
2022-08-05T07:48:15.121Z,101085.75
2022-08-05T07:51:01.955Z,101090.53
2022-08-05T07:53:36.978Z,101092.75
2022-08-05T07:57:00.793Z,101093.59
2022-08-05T07:59:08.779Z,101093.09
2022-08-05T08:01:51.753Z,101088.19
2022-08-05T08:04:22.996Z,101090.78
2022-08-05T08:07:07.010Z,101096.16
2022-08-05T08:09:35.086Z,101098.91
2022-08-05T08:12:14.047Z,101109.94
2022-08-05T08:14:46.978Z,101111.69
2022-08-05T08:17:16.795Z,101121.84
2022-08-05T08:20:21.860Z,101116.16
2022-08-05T08:22:33.274Z,101097.25
2022-08-05T08:25:03.897Z,101091.88
2022-08-05T08:27:51.103Z,101097.91
2022-08-05T08:30:32.214Z,101099.34
2022-08-05T08:33:13.778Z,101111.06
2022-08-05T08:35:53.790Z,101101.31
2022-08-05T08:38:32.203Z,101086.66
2022-08-05T08:41:10.118Z,101095.28
2022-08-05T08:45:19.740Z,101090.63
2022-08-05T08:46:34.977Z,101077.09
2022-08-05T08:50:14.162Z,101071.69
2022-08-05T08:52:20.332Z,101085.88
2022-08-05T08:54:55.764Z,101094.16
2022-08-05T08:57:42.046Z,101094.53
2022-08-05T09:00:19.398Z,101097.25
2022-08-05T09:02:50.100Z,101102.47
2022-08-05T09:05:19.688Z,101102.31
2022-08-05T09:08:06.077Z,101104.88
2022-08-05T09:10:36.763Z,101106.13
2022-08-05T09:13:08.012Z,101101.88
2022-08-05T09:15:38.094Z,101110.72
2022-08-05T09:18:10.400Z,101112.28
2022-08-05T09:20:45.857Z,101105.06
2022-08-05T09:23:21.916Z,101107.84
2022-08-05T09:26:02.156Z,101104.09
2022-08-05T09:28:36.143Z,101110.72
2022-08-05T09:31:44.060Z,101108.44
2022-08-05T09:34:09.781Z,101103.88
2022-08-05T09:36:56.199Z,101108.06
2022-08-05T09:39:41.531Z,101097.38
2022-08-05T09:42:27.708Z,101092.22
2022-08-05T09:44:57.404Z,101091.97
2022-08-05T09:47:35.192Z,101099.28
2022-08-05T09:50:37.955Z,101109.41
2022-08-05T09:53:05.885Z,101111.31
2022-08-05T09:55:58.551Z,101106.13
2022-08-05T09:58:28.991Z,101114.56
2022-08-05T10:01:15.062Z,101112.50
2022-08-05T10:04:16.243Z,101118.03
2022-08-05T10:06:58.931Z,101117.81
2022-08-05T10:09:28.184Z,101113.34
2022-08-05T10:12:30.693Z,101117.44
2022-08-05T10:15:34.347Z,101122.38
2022-08-05T10:18:16.697Z,101124.16
2022-08-05T10:20:51.392Z,101124.53
2022-08-05T10:23:55.782Z,101121.16
2022-08-05T10:26:15.310Z,101133.31
2022-08-05T10:28:47.583Z,101132.56
2022-08-05T10:32:54.588Z,101136.81
2022-08-05T10:34:04.124Z,101137.88
2022-08-05T10:36:38.626Z,101136.94
2022-08-05T10:39:59.385Z,101139.59
2022-08-05T10:42:33.771Z,101140.06
2022-08-05T10:45:20.969Z,101147.50
2022-08-05T10:48:29.827Z,101150.03
2022-08-05T10:51:22.475Z,101143.03
2022-08-05T10:53:54.503Z,101137.88
2022-08-05T10:56:27.760Z,101146.78
2022-08-05T10:58:55.757Z,101153.16
2022-08-05T11:01:55.302Z,101157.59
2022-08-05T11:04:26.313Z,101153.03
2022-08-05T11:07:04.513Z,101158.47
2022-08-05T11:10:04.049Z,101157.16
2022-08-05T11:12:38.198Z,101155.94
2022-08-05T11:15:20.281Z,101161.97
2022-08-05T11:18:07.391Z,101163.50
2022-08-05T11:20:45.172Z,101163.38
2022-08-05T11:24:04.618Z,101168.81
2022-08-05T11:26:32.904Z,101169.88
2022-08-05T11:29:13.080Z,101166.28
2022-08-05T11:31:53.965Z,101171.31
2022-08-05T11:34:51.168Z,101189.19
2022-08-05T11:38:30.407Z,101191.69
2022-08-05T11:41:01.071Z,101219.22
2022-08-05T11:44:06.328Z,101231.25
2022-08-05T11:46:32.518Z,101227.88
2022-08-05T11:49:06.146Z,101225.72
2022-08-05T11:51:44.707Z,101235.00
2022-08-05T11:54:33.633Z,101249.50
2022-08-05T11:57:08.310Z,101265.44
2022-08-05T11:59:52.116Z,101283.66
2022-08-05T12:02:31.395Z,101284.91
2022-08-05T12:05:06.850Z,101300.91
2022-08-05T12:08:03.142Z,101304.88
2022-08-05T12:10:43.782Z,101308.59
2022-08-05T12:13:18.810Z,101311.59
2022-08-05T12:16:14.379Z,101306.22
2022-08-05T12:18:49.623Z,101321.84
2022-08-05T12:21:29.832Z,101324.66
2022-08-05T12:24:06.963Z,101327.81
2022-08-05T12:26:54.777Z,101324.38
2022-08-05T12:29:25.675Z,101298.91
2022-08-05T12:31:55.187Z,101291.72
2022-08-05T12:34:32.273Z,101300.56
2022-08-05T12:37:10.868Z,101281.97
2022-08-05T12:39:48.704Z,101266.69
2022-08-05T12:42:20.783Z,101277.66
2022-08-05T12:44:48.379Z,101277.66
2022-08-05T12:47:31.074Z,101275.44
2022-08-05T12:50:04.652Z,101281.75
2022-08-05T12:52:39.293Z,101288.44
2022-08-05T12:55:25.493Z,101299.91
2022-08-05T12:58:38.971Z,101303.28
2022-08-05T13:02:01.081Z,101302.78
2022-08-05T13:03:43.344Z,101301.66
2022-08-05T13:06:17.721Z,101295.66
2022-08-05T13:08:51.791Z,101310.66
2022-08-05T13:11:59.869Z,101324.53
2022-08-05T13:14:36.388Z,101314.00
2022-08-05T13:17:15.981Z,101306.41
2022-08-05T13:20:11.707Z,101309.16
2022-08-05T13:22:50.246Z,101309.38
2022-08-05T13:25:21.730Z,101308.25
2022-08-05T13:27:57.344Z,101294.88
2022-08-05T13:30:33.583Z,101311.63
2022-08-05T13:33:02.510Z,101310.78
2022-08-05T13:35:43.049Z,101319.19
2022-08-05T13:38:28.509Z,101314.22
2022-08-05T13:41:01.432Z,101300.44
2022-08-05T13:43:44.395Z,101310.25
2022-08-05T13:46:30.764Z,101309.97
2022-08-05T13:49:10.575Z,101306.97
2022-08-05T13:51:46.513Z,101309.13
2022-08-05T13:54:21.094Z,101305.03
2022-08-05T13:56:52.111Z,101310.81
2022-08-05T13:59:24.245Z,101303.00
2022-08-05T14:01:58.210Z,101311.50
2022-08-05T14:04:55.804Z,101316.16
2022-08-05T14:08:01.175Z,101313.09
2022-08-05T14:10:30.894Z,101305.63
2022-08-05T14:12:59.386Z,101308.47
2022-08-05T14:16:07.195Z,101316.22
2022-08-05T14:18:18.313Z,101320.69
2022-08-05T14:20:48.155Z,101314.38
2022-08-05T14:23:24.019Z,101308.66
2022-08-05T14:25:58.967Z,101301.59
2022-08-05T14:28:30.752Z,101301.66
2022-08-05T14:31:02.364Z,101299.44
2022-08-05T14:33:59.959Z,101308.91
2022-08-05T14:36:22.911Z,101313.56
2022-08-05T14:38:53.654Z,101316.81
2022-08-05T14:41:21.259Z,101323.66
2022-08-05T14:44:00.237Z,101323.41
2022-08-05T14:46:35.282Z,101324.09
2022-08-05T14:49:07.217Z,101324.81
2022-08-05T14:51:42.635Z,101324.38
2022-08-05T14:54:29.757Z,101325.41
2022-08-05T14:56:58.008Z,101325.28
2022-08-05T14:59:29.754Z,101338.38
2022-08-05T15:02:03.170Z,101338.28
2022-08-05T15:04:32.343Z,101337.22
2022-08-05T15:06:59.195Z,101336.59
2022-08-05T15:09:52.045Z,101335.34
2022-08-05T15:12:17.230Z,101348.25
2022-08-05T15:14:49.961Z,101340.31
2022-08-05T15:17:47.271Z,101346.81
2022-08-05T15:20:18.847Z,101350.78
2022-08-05T15:22:52.300Z,101361.06
2022-08-05T15:25:40.950Z,101352.00
2022-08-05T15:28:15.714Z,101356.44
2022-08-05T15:30:46.512Z,101351.56
2022-08-05T15:34:05.345Z,101361.13
2022-08-05T15:36:05.321Z,101359.97
2022-08-05T15:38:41.029Z,101363.72
2022-08-05T15:41:22.398Z,101369.22
2022-08-05T15:43:52.223Z,101358.59
2022-08-05T15:46:24.208Z,101366.88
2022-08-05T15:49:01.462Z,101368.56
2022-08-05T15:52:10.039Z,101371.72
2022-08-05T15:54:34.486Z,101371.13
2022-08-05T15:57:02.401Z,101365.22
2022-08-05T15:59:29.318Z,101359.09
2022-08-05T16:01:56.276Z,101365.38
2022-08-05T16:04:26.368Z,101364.91
2022-08-05T16:06:56.456Z,101369.91
2022-08-05T16:09:25.156Z,101359.00
2022-08-05T16:11:54.659Z,101350.44
2022-08-05T16:14:22.734Z,101359.25
2022-08-05T16:16:50.429Z,101356.81
2022-08-05T16:19:25.278Z,101366.34
2022-08-05T16:22:00.066Z,101369.56
2022-08-05T16:24:41.885Z,101373.69
2022-08-05T16:27:46.897Z,101359.38
2022-08-05T16:30:23.149Z,101366.25
2022-08-05T16:32:57.905Z,101365.38
2022-08-05T16:35:32.303Z,101367.66
2022-08-05T16:38:23.877Z,101361.63
2022-08-05T16:41:00.847Z,101363.06
2022-08-05T16:43:34.504Z,101383.16
2022-08-05T16:46:23.899Z,101391.69
2022-08-05T16:48:50.836Z,101423.81
2022-08-05T16:51:20.630Z,101426.06
2022-08-05T16:54:02.742Z,101424.75
2022-08-05T16:56:34.865Z,101425.50
2022-08-05T16:59:07.959Z,101418.00
2022-08-05T17:01:53.884Z,101423.81
2022-08-05T17:04:28.713Z,101425.41
2022-08-05T17:07:01.041Z,101423.91
2022-08-05T17:09:29.961Z,101433.34
2022-08-05T17:12:00.328Z,101428.63
2022-08-05T17:14:37.544Z,101425.97
2022-08-05T17:17:09.339Z,101425.47
2022-08-05T17:19:43.861Z,101436.47
2022-08-05T17:22:17.788Z,101434.47
2022-08-05T17:24:57.893Z,101450.25
2022-08-05T17:27:27.566Z,101444.03
2022-08-05T17:30:03.451Z,101447.22
2022-08-05T17:32:32.271Z,101451.38
2022-08-05T17:35:02.269Z,101456.31
2022-08-05T17:37:41.669Z,101454.38
2022-08-05T17:40:16.145Z,101456.00
2022-08-05T17:42:50.931Z,101474.00
2022-08-05T17:45:25.011Z,101466.94
2022-08-05T17:47:56.804Z,101464.44
2022-08-05T17:50:30.466Z,101483.81
2022-08-05T17:53:02.488Z,101483.56
2022-08-05T17:55:37.912Z,101482.41
2022-08-05T17:58:13.497Z,101488.41
2022-08-05T18:00:50.743Z,101497.41
2022-08-05T18:06:12.369Z,101514.28
2022-08-05T18:08:52.612Z,101516.38
2022-08-05T18:11:33.174Z,101518.28
2022-08-05T18:14:04.373Z,101520.81
2022-08-05T18:16:35.018Z,101524.25
2022-08-05T18:19:16.121Z,101529.34
2022-08-05T18:22:09.138Z,101527.03
2022-08-05T18:24:32.336Z,101530.41
2022-08-05T18:26:59.329Z,101534.91
2022-08-05T18:29:40.426Z,101542.56
2022-08-05T18:32:13.002Z,101545.31
2022-08-05T18:34:41.529Z,101551.03
2022-08-05T18:37:33.440Z,101550.41
2022-08-05T18:40:34.496Z,101552.75
2022-08-05T18:42:46.281Z,101566.91
2022-08-05T18:45:13.293Z,101567.09
2022-08-05T18:47:44.803Z,101578.97
2022-08-05T18:50:45.200Z,101574.72
2022-08-05T18:53:19.270Z,101561.78
2022-08-05T18:55:49.662Z,101578.94
2022-08-05T18:58:22.184Z,101588.16
2022-08-05T19:00:56.578Z,101597.72
2022-08-05T19:03:52.769Z,101596.88
2022-08-05T19:06:21.710Z,101590.16
2022-08-05T19:08:49.365Z,101602.63
2022-08-05T19:11:27.939Z,101615.19
2022-08-05T19:14:01.149Z,101615.09
2022-08-05T19:16:47.278Z,101612.31
2022-08-05T19:19:20.947Z,101613.84
2022-08-05T19:21:51.675Z,101617.31
2022-08-05T19:24:34.337Z,101627.13
2022-08-05T19:27:04.203Z,101632.75
2022-08-05T19:29:35.869Z,101633.50
2022-08-05T19:32:04.676Z,101642.53
2022-08-05T19:34:33.748Z,101635.97
2022-08-05T19:37:01.138Z,101644.78
2022-08-05T19:39:33.095Z,101644.50
2022-08-05T19:42:13.522Z,101650.13
2022-08-05T19:44:45.223Z,101650.94
2022-08-05T19:47:15.209Z,101655.19
2022-08-05T19:49:44.698Z,101661.44
2022-08-05T19:52:30.448Z,101669.19
2022-08-05T19:55:06.891Z,101675.72
2022-08-05T19:58:07.096Z,101672.72
2022-08-05T20:00:35.807Z,101683.50
2022-08-05T20:03:08.568Z,101688.16
2022-08-05T20:05:43.108Z,101697.66
2022-08-05T20:08:24.577Z,101695.53
2022-08-05T20:10:55.420Z,101697.06
2022-08-05T20:13:29.813Z,101698.50
2022-08-05T20:16:13.981Z,101702.28
2022-08-05T20:18:50.893Z,101700.13
2022-08-05T20:21:22.886Z,101707.66
2022-08-05T20:23:53.268Z,101705.38
2022-08-05T20:26:27.053Z,101703.22
2022-08-05T20:29:01.584Z,101705.03
2022-08-05T20:31:43.037Z,101712.97
2022-08-05T20:34:19.431Z,101714.41
2022-08-05T20:36:49.113Z,101711.94
2022-08-05T20:39:17.137Z,101715.34
2022-08-05T20:41:45.222Z,101721.47
2022-08-05T20:44:28.983Z,101718.09
2022-08-05T20:47:05.034Z,101731.09
2022-08-05T20:49:39.467Z,101739.44
2022-08-05T20:52:08.364Z,101742.47
2022-08-05T20:54:59.781Z,101744.25
2022-08-05T20:57:24.496Z,101748.44
2022-08-05T21:00:40.502Z,101754.78
2022-08-05T21:03:06.318Z,101753.91
2022-08-05T21:05:48.378Z,101764.75
2022-08-05T21:08:26.763Z,101768.28
2022-08-05T21:11:00.470Z,101772.00
2022-08-05T21:13:48.108Z,101777.25
2022-08-05T21:16:30.153Z,101775.69
2022-08-05T21:19:03.477Z,101773.47
2022-08-05T21:21:43.956Z,101767.22
2022-08-05T21:24:20.037Z,101773.47
2022-08-05T21:26:58.446Z,101772.88
2022-08-05T21:29:31.749Z,101777.41
2022-08-05T21:32:02.942Z,101783.34
2022-08-05T21:34:31.667Z,101781.44
2022-08-05T21:37:00.214Z,101772.66
2022-08-05T21:39:29.856Z,101775.25
2022-08-05T21:42:01.835Z,101772.59
2022-08-05T21:44:30.472Z,101777.03
2022-08-05T21:46:58.494Z,101790.53
2022-08-05T21:50:00.060Z,101781.13
2022-08-05T21:52:27.683Z,101782.00
2022-08-05T21:54:57.658Z,101786.81
2022-08-05T21:57:33.798Z,101783.22
2022-08-05T22:00:05.903Z,101782.25
2022-08-05T22:02:34.150Z,101782.41
2022-08-05T22:05:01.084Z,101783.91
2022-08-05T22:07:40.293Z,101784.88
2022-08-05T22:10:17.254Z,101788.94
2022-08-05T22:12:53.389Z,101791.63
2022-08-05T22:16:00.285Z,101792.75
2022-08-05T22:18:11.875Z,101791.59
2022-08-05T22:20:39.805Z,101795.13
2022-08-05T22:24:02.056Z,101795.50
2022-08-05T22:26:31.325Z,101793.06
2022-08-05T22:29:00.718Z,101788.13
2022-08-05T22:31:30.191Z,101798.19
2022-08-05T22:34:01.115Z,101800.03
2022-08-05T22:36:31.678Z,101811.97
2022-08-05T22:39:04.055Z,101803.75
2022-08-05T22:42:09.251Z,101811.25
2022-08-05T22:44:29.216Z,101811.06
2022-08-05T22:46:58.389Z,101814.06
2022-08-05T22:50:21.666Z,101805.19
2022-08-05T22:52:30.465Z,101806.03
2022-08-05T22:55:18.928Z,101814.72
2022-08-05T22:57:49.267Z,101808.16
2022-08-05T23:00:18.325Z,101810.34
2022-08-05T23:02:48.977Z,101810.38
2022-08-05T23:05:16.594Z,101822.84
2022-08-05T23:07:45.084Z,101822.31
2022-08-05T23:10:16.441Z,101829.50
2022-08-05T23:12:51.548Z,101825.97
2022-08-05T23:15:27.016Z,101833.69
2022-08-05T23:18:01.154Z,101822.50
2022-08-05T23:20:32.799Z,101825.94
2022-08-05T23:23:00.839Z,101824.09
2022-08-05T23:25:53.302Z,101827.91
2022-08-05T23:28:27.826Z,101825.97
2022-08-05T23:30:56.761Z,101820.34
2022-08-05T23:34:05.216Z,101833.22
2022-08-05T23:36:39.803Z,101836.94
2022-08-05T23:39:17.294Z,101839.53
2022-08-05T23:42:02.202Z,101844.84
2022-08-05T23:44:32.292Z,101848.94
2022-08-05T23:47:14.493Z,101848.88
2022-08-05T23:49:46.390Z,101854.75
2022-08-05T23:52:32.144Z,101853.22
2022-08-05T23:55:08.954Z,101861.59
2022-08-05T23:57:36.430Z,101866.94
